EDDH

Hamburg Airport

Hamburg, Germany
METAR EDDH 230650Z 12008KT 100V170 6000 BKN009 M05/M08 Q1002 TEMPO 4000 BR SCT010
Observed Flight Rules
Jan-23 @ 06:50 UTC (37 minutes ago) Instrument Flight Rules
Wind Visibility Clouds
120° at 8 knots 6,003 meters
  • Broken at 900' AGL
Temperatures Readings
Current -5°C / 23°F
Dewpoint -8°C / 18°F
Humidity 80%
Altimeter 29.59" Hg
Pressure 1001.92 hPa
Elevation 16
METAR EDDH 230650Z 12008KT 100V170 6000 BKN009 M05/M08 Q1002 TEMPO 4000 BR SCT010
Observed Flight Rules
Jan-23 @ 06:50 UTC
(37 minutes ago)
IFR
Wind Visibility
120° at 8 knots 6,003 meters
Clouds
  • Broken at 900' AGL
Temperature Dewpoint
-5°C / 23°F -8°C / 18°F
Humidity Altimeter Pressure
80% 29.59" Hg 1001.92 hPa